createdAt,value
2022-09-01T00:00:55.278Z,22.13
2022-09-01T00:02:58.411Z,23.60
2022-09-01T00:05:02.575Z,23.23
2022-09-01T00:07:08.424Z,21.75
2022-09-01T00:09:18.175Z,20.38
2022-09-01T00:11:22.454Z,20.98
2022-09-01T00:13:25.145Z,20.95
2022-09-01T00:15:27.914Z,21.08
2022-09-01T00:17:31.487Z,19.67
2022-09-01T00:19:36.666Z,20.05
2022-09-01T00:21:43.145Z,19.77
2022-09-01T00:23:45.958Z,20.90
2022-09-01T00:25:48.682Z,19.70
2022-09-01T00:27:51.896Z,19.77
2022-09-01T00:29:54.714Z,20.10
2022-09-01T00:31:57.447Z,20.75
2022-09-01T00:34:01.245Z,19.90
2022-09-01T00:36:05.777Z,21.98
2022-09-01T00:38:08.487Z,22.85
2022-09-01T00:40:13.462Z,22.45
2022-09-01T00:42:16.353Z,21.70
2022-09-01T00:44:27.095Z,21.92
2022-09-01T00:46:49.963Z,21.15
2022-09-01T00:49:10.753Z,22.73
2022-09-01T00:51:13.787Z,22.83
2022-09-01T00:53:16.512Z,22.98
2022-09-01T00:55:27.222Z,22.70
2022-09-01T00:57:30.406Z,22.17
2022-09-01T00:59:33.356Z,22.70
2022-09-01T01:01:37.108Z,23.88
2022-09-01T01:03:42.571Z,22.05
2022-09-01T01:05:54.097Z,21.92
2022-09-01T01:07:57.330Z,21.00
2022-09-01T01:10:00.088Z,21.38
2022-09-01T01:12:05.694Z,21.67
2022-09-01T01:14:12.857Z,20.73
2022-09-01T01:16:16.362Z,19.55
2022-09-01T01:18:23.211Z,20.73
2022-09-01T01:20:50.720Z,20.95
2022-09-01T01:23:14.086Z,20.85
2022-09-01T01:25:19.218Z,20.45
2022-09-01T01:27:22.323Z,19.70
2022-09-01T01:29:25.205Z,20.58
2022-09-01T01:31:27.845Z,22.45
2022-09-01T01:33:41.580Z,20.20
2022-09-01T01:35:47.228Z,21.00
2022-09-01T01:37:50.735Z,20.52
2022-09-01T01:39:53.604Z,21.25
2022-09-01T01:41:59.009Z,21.95
2022-09-01T01:44:04.504Z,24.33
2022-09-01T01:46:09.269Z,22.80
2022-09-01T01:48:12.911Z,23.92
2022-09-01T01:50:15.958Z,23.48
2022-09-01T01:52:20.997Z,23.52
2022-09-01T01:54:31.540Z,25.38
2022-09-01T01:56:39.946Z,24.70
2022-09-01T01:58:42.782Z,25.40
2022-09-01T02:00:47.775Z,26.88
2022-09-01T02:02:54.785Z,29.10
2022-09-01T02:04:58.058Z,27.00
2022-09-01T02:07:00.915Z,27.38
2022-09-01T02:09:04.682Z,27.83
2022-09-01T02:11:08.532Z,29.35
2022-09-01T02:13:16.663Z,30.08
2022-09-01T02:15:20.315Z,29.83
2022-09-01T02:17:23.727Z,29.08
2022-09-01T02:19:27.649Z,32.15
2022-09-01T02:21:30.337Z,30.17
2022-09-01T02:23:33.270Z,30.58
2022-09-01T02:25:45.857Z,30.55
2022-09-01T02:27:56.754Z,30.88
2022-09-01T02:29:59.508Z,32.13
2022-09-01T02:32:02.316Z,30.23
2022-09-01T02:34:10.899Z,32.03
2022-09-01T02:36:17.569Z,30.88
2022-09-01T02:38:21.274Z,31.23
2022-09-01T02:40:23.987Z,30.35
2022-09-01T02:42:29.971Z,31.13
2022-09-01T02:44:32.900Z,30.70
2022-09-01T02:46:41.981Z,29.48
2022-09-01T02:48:46.403Z,29.65
2022-09-01T02:50:49.624Z,29.10
2022-09-01T02:52:52.905Z,30.20
2022-09-01T02:54:58.080Z,29.02
2022-09-01T02:57:01.643Z,28.75
2022-09-01T02:59:04.371Z,28.60
2022-09-01T03:01:25.118Z,29.85
2022-09-01T03:03:28.943Z,27.58
2022-09-01T03:05:34.790Z,28.35
2022-09-01T03:07:38.214Z,26.48
2022-09-01T03:09:43.180Z,27.63
2022-09-01T03:11:49.942Z,26.33
2022-09-01T03:13:53.953Z,27.42
2022-09-01T03:15:57.399Z,26.92
2022-09-01T03:18:01.193Z,26.13
2022-09-01T03:20:04.135Z,26.48
2022-09-01T03:22:06.878Z,26.10
2022-09-01T03:24:14.964Z,26.10
2022-09-01T03:26:21.405Z,27.13
2022-09-01T03:28:25.348Z,25.23
2022-09-01T03:30:30.406Z,26.85
2022-09-01T03:32:33.200Z,27.25
2022-09-01T03:34:37.182Z,27.65
2022-09-01T03:36:40.265Z,29.40
2022-09-01T03:38:44.403Z,27.00
2022-09-01T03:40:47.898Z,25.65
2022-09-01T03:42:53.274Z,26.73
2022-09-01T03:44:56.998Z,26.92
2022-09-01T03:47:01.674Z,27.83
2022-09-01T03:49:08.029Z,29.55
2022-09-01T03:51:12.221Z,28.70
2022-09-01T03:53:23.111Z,27.58
2022-09-01T03:55:30.217Z,26.17
2022-09-01T03:57:34.664Z,26.27
2022-09-01T03:59:45.068Z,26.75
2022-09-01T04:01:47.826Z,26.38
2022-09-01T04:03:52.491Z,26.10
2022-09-01T04:05:55.426Z,25.80
2022-09-01T04:08:04.146Z,25.02
2022-09-01T04:10:11.833Z,25.75
2022-09-01T04:12:16.233Z,26.13
2022-09-01T04:14:19.555Z,23.58
2022-09-01T04:16:42.393Z,23.25
2022-09-01T04:18:51.332Z,24.83
2022-09-01T04:20:57.146Z,23.83
2022-09-01T04:23:00.169Z,24.75
2022-09-01T04:25:02.949Z,23.45
2022-09-01T04:27:07.847Z,22.17
2022-09-01T04:29:13.066Z,23.75
2022-09-01T04:31:21.035Z,22.83
2022-09-01T04:33:26.060Z,23.27
2022-09-01T04:35:37.674Z,22.40
2022-09-01T04:37:48.802Z,21.63
2022-09-01T04:39:57.107Z,23.42
2022-09-01T04:42:00.354Z,21.10
2022-09-01T04:44:07.387Z,22.00
2022-09-01T04:46:11.668Z,21.60
2022-09-01T04:48:15.282Z,21.25
2022-09-01T04:50:18.700Z,20.40
2022-09-01T04:52:21.301Z,20.00
2022-09-01T04:54:24.683Z,22.60
2022-09-01T04:56:28.879Z,22.35
2022-09-01T04:58:34.352Z,22.17
2022-09-01T05:00:37.566Z,22.27
2022-09-01T05:02:40.780Z,22.27
2022-09-01T05:04:46.668Z,21.85
2022-09-01T05:07:01.303Z,22.17
2022-09-01T05:09:04.130Z,22.08
2022-09-01T05:11:09.678Z,21.08
2022-09-01T05:13:14.553Z,18.67
2022-09-01T05:15:17.440Z,21.80
2022-09-01T05:17:20.149Z,20.70
2022-09-01T05:19:29.069Z,18.50
2022-09-01T05:21:31.880Z,18.65
2022-09-01T05:23:36.622Z,21.63
2022-09-01T05:25:42.333Z,21.17
2022-09-01T05:27:49.928Z,20.70
2022-09-01T05:29:54.414Z,22.65
2022-09-01T05:31:59.015Z,20.85
2022-09-01T05:34:03.487Z,23.95
2022-09-01T05:36:08.811Z,24.10
2022-09-01T05:38:14.237Z,22.10
2022-09-01T05:40:17.566Z,22.02
2022-09-01T05:42:20.251Z,24.08
2022-09-01T05:44:23.152Z,24.30
2022-09-01T05:46:28.558Z,25.30
2022-09-01T05:48:31.887Z,24.85
2022-09-01T05:50:34.564Z,26.67
2022-09-01T05:52:39.599Z,25.77
2022-09-01T05:54:44.336Z,25.10
2022-09-01T05:56:47.468Z,27.33
2022-09-01T06:01:22.304Z,29.88
2022-09-01T06:05:32.253Z,26.48
2022-09-01T06:07:39.708Z,24.58
2022-09-01T06:09:46.953Z,24.58
2022-09-01T06:11:50.301Z,24.55
2022-09-01T06:13:57.180Z,24.98
2022-09-01T06:16:02.296Z,25.38
2022-09-01T06:18:07.206Z,24.50
2022-09-01T06:20:11.142Z,25.63
2022-09-01T06:22:14.354Z,23.92
2022-09-01T06:24:18.264Z,25.52
2022-09-01T06:26:29.062Z,26.45
2022-09-01T06:28:31.805Z,25.48
2022-09-01T06:30:36.699Z,22.40
2022-09-01T06:32:41.047Z,23.38
2022-09-01T06:34:50.596Z,23.20
2022-09-01T06:36:54.097Z,25.23
2022-09-01T06:38:56.770Z,24.13
2022-09-01T06:41:04.619Z,24.40
2022-09-01T06:43:10.176Z,25.33
2022-09-01T06:45:15.195Z,24.25
2022-09-01T06:47:17.977Z,20.38
2022-09-01T06:49:23.770Z,21.27
2022-09-01T06:51:32.096Z,24.40
2022-09-01T06:53:35.605Z,24.80
2022-09-01T06:55:39.115Z,23.40
2022-09-01T07:00:21.294Z,23.63
2022-09-01T07:02:26.974Z,23.02
2022-09-01T07:04:31.626Z,23.60
2022-09-01T07:16:33.191Z,23.55
2022-09-01T07:18:38.174Z,25.67
2022-09-01T07:23:06.491Z,26.90
2022-09-01T07:25:12.767Z,25.23
2022-09-01T07:29:57.964Z,25.90
2022-09-01T07:34:42.159Z,28.70
2022-09-01T07:42:58.904Z,25.40
2022-09-01T07:44:05.583Z,28.60
2022-09-01T07:53:25.623Z,44.60
2022-09-01T07:55:29.284Z,48.55
2022-09-01T07:57:32.265Z,46.40
2022-09-01T07:59:35.641Z,46.65
2022-09-01T08:01:38.368Z,40.85
2022-09-01T08:03:41.823Z,37.83
2022-09-01T08:05:45.018Z,35.58
2022-09-01T08:07:52.396Z,33.60
2022-09-01T08:09:56.114Z,31.58
2022-09-01T08:12:05.366Z,32.45
2022-09-01T08:14:10.194Z,30.63
2022-09-01T08:16:18.102Z,30.15
2022-09-01T08:18:21.841Z,30.67
2022-09-01T08:20:24.757Z,30.85
2022-09-01T08:22:28.123Z,28.85
2022-09-01T08:24:31.194Z,28.23
2022-09-01T08:26:34.093Z,26.17
2022-09-01T08:28:36.875Z,27.33
2022-09-01T08:30:41.997Z,30.30
2022-09-01T08:32:55.028Z,29.38
2022-09-01T08:34:57.864Z,26.80
2022-09-01T08:37:00.997Z,27.20
2022-09-01T08:39:04.148Z,25.40
2022-09-01T08:41:35.269Z,23.05
2022-09-01T08:43:40.917Z,23.70
2022-09-01T08:45:55.400Z,21.13
2022-09-01T08:49:16.052Z,20.30
2022-09-01T08:50:30.124Z,14.88
2022-09-01T08:52:42.786Z,11.60
2022-09-01T08:54:50.957Z,12.23
2022-09-01T08:57:01.209Z,10.18
2022-09-01T08:59:06.785Z,10.13
2022-09-01T09:01:21.992Z,11.57
2022-09-01T09:04:03.293Z,12.18
2022-09-01T09:06:17.469Z,11.95
2022-09-01T09:10:55.944Z,11.35
2022-09-01T09:13:11.417Z,10.93
2022-09-01T09:15:40.244Z,10.00
2022-09-01T09:18:00.405Z,9.73
2022-09-01T09:20:05.249Z,9.75
2022-09-01T09:22:13.859Z,9.15
2022-09-01T09:24:47.516Z,9.40
2022-09-01T09:26:59.153Z,9.63
2022-09-01T09:29:02.225Z,8.48
2022-09-01T09:31:50.459Z,9.23
2022-09-01T09:33:57.079Z,10.15
2022-09-01T09:36:22.186Z,12.55
2022-09-01T09:38:33.562Z,11.27
2022-09-01T09:41:00.033Z,11.20
2022-09-01T09:43:04.368Z,10.35
2022-09-01T09:45:22.402Z,10.13
2022-09-01T09:47:45.075Z,9.20
2022-09-01T09:49:48.946Z,9.07
2022-09-01T09:51:54.750Z,10.52
2022-09-01T09:54:15.738Z,10.40
2022-09-01T09:56:20.441Z,11.07
2022-09-01T09:58:26.948Z,11.30
2022-09-01T10:00:35.452Z,11.25
2022-09-01T10:02:42.091Z,11.75
2022-09-01T10:04:45.075Z,12.25
2022-09-01T10:06:48.049Z,13.32
2022-09-01T10:08:50.902Z,12.82
2022-09-01T10:10:58.153Z,12.52
2022-09-01T10:13:02.487Z,10.88
2022-09-01T10:15:14.152Z,12.68
2022-09-01T10:17:33.070Z,11.60
2022-09-01T10:19:42.379Z,11.85
2022-09-01T10:21:46.154Z,11.45
2022-09-01T10:23:49.107Z,9.90
2022-09-01T10:25:58.179Z,9.25
2022-09-01T10:28:12.184Z,8.57
2022-09-01T10:30:20.888Z,8.07
2022-09-01T10:32:50.787Z,8.75
2022-09-01T10:34:59.809Z,9.48
2022-09-01T10:37:03.956Z,8.23
2022-09-01T10:39:11.861Z,8.80
2022-09-01T10:41:44.692Z,9.68
2022-09-01T10:43:50.164Z,10.63
2022-09-01T10:45:58.721Z,11.18
2022-09-01T10:48:30.851Z,11.43
2022-09-01T10:50:36.093Z,11.40
2022-09-01T10:52:43.851Z,10.45
2022-09-01T10:54:52.759Z,10.85
2022-09-01T10:57:45.211Z,10.80
2022-09-01T10:59:56.040Z,12.00
2022-09-01T11:02:35.912Z,11.65
2022-09-01T11:04:47.297Z,10.82
2022-09-01T11:09:22.127Z,10.20
2022-09-01T11:11:39.835Z,10.00
2022-09-01T11:13:50.180Z,11.77
2022-09-01T11:15:53.922Z,10.45
2022-09-01T11:18:00.032Z,11.23
2022-09-01T11:20:11.325Z,12.18
2022-09-01T11:22:14.014Z,11.68
2022-09-01T11:24:38.506Z,11.57
2022-09-01T11:26:48.963Z,12.35
2022-09-01T11:28:51.744Z,12.05
2022-09-01T11:31:06.549Z,13.30
2022-09-01T11:33:13.828Z,13.98
2022-09-01T11:35:21.952Z,14.00
2022-09-01T11:37:27.775Z,12.77
2022-09-01T11:39:39.919Z,13.30
2022-09-01T11:42:04.260Z,12.75
2022-09-01T11:44:43.658Z,13.38
2022-09-01T11:46:46.530Z,13.60
2022-09-01T11:48:52.076Z,13.40
2022-09-01T11:51:01.950Z,13.63
2022-09-01T11:53:09.110Z,15.05
2022-09-01T11:55:11.912Z,13.38
2022-09-01T11:57:41.432Z,12.32
2022-09-01T11:59:44.248Z,10.95
2022-09-01T12:01:46.949Z,12.57
2022-09-01T12:03:51.491Z,11.95
2022-09-01T12:06:02.043Z,11.88
2022-09-01T12:08:16.047Z,11.77
2022-09-01T12:10:26.551Z,11.55
2022-09-01T12:12:33.776Z,11.73
2022-09-01T12:15:02.106Z,11.90
2022-09-01T12:17:05.700Z,10.20
2022-09-01T12:19:08.830Z,10.50
2022-09-01T12:21:21.146Z,9.85
2022-09-01T12:23:40.454Z,10.38
2022-09-01T12:25:43.291Z,10.63
2022-09-01T12:27:46.301Z,10.20
2022-09-01T12:29:50.724Z,10.00
2022-09-01T12:31:54.724Z,10.35
2022-09-01T12:33:57.650Z,10.10
2022-09-01T12:36:25.558Z,10.52
2022-09-01T12:38:30.913Z,9.15
2022-09-01T12:40:36.146Z,8.88
2022-09-01T12:42:49.142Z,8.02
2022-09-01T12:45:04.144Z,7.97
2022-09-01T12:47:13.714Z,7.55
2022-09-01T12:49:34.968Z,7.97
2022-09-01T12:51:37.725Z,7.95
2022-09-01T12:53:42.534Z,8.60
2022-09-01T12:56:14.558Z,7.47
2022-09-01T12:58:25.979Z,8.05
2022-09-01T13:00:30.541Z,7.97
2022-09-01T13:02:37.622Z,8.57
2022-09-01T13:04:42.305Z,8.15
2022-09-01T13:06:44.999Z,7.53
2022-09-01T13:08:47.652Z,7.57
2022-09-01T13:10:56.718Z,6.97
2022-09-01T13:12:59.319Z,7.85
2022-09-01T13:15:02.266Z,7.05
2022-09-01T13:17:14.035Z,6.13
2022-09-01T13:19:26.513Z,5.93
2022-09-01T13:21:31.602Z,5.88
2022-09-01T13:23:34.771Z,4.30
2022-09-01T13:25:37.371Z,3.65
2022-09-01T13:27:45.006Z,3.92
2022-09-01T13:29:51.592Z,3.22
2022-09-01T13:34:24.026Z,3.30
2022-09-01T13:36:46.175Z,3.33
2022-09-01T13:39:02.104Z,2.95
2022-09-01T13:41:04.785Z,4.55
2022-09-01T13:43:07.646Z,3.05
2022-09-01T13:45:15.144Z,3.10
2022-09-01T13:47:35.417Z,3.83
2022-09-01T13:49:44.444Z,3.30
2022-09-01T13:52:06.299Z,3.35
2022-09-01T13:54:09.159Z,3.50
2022-09-01T13:56:11.930Z,3.70
2022-09-01T13:58:15.194Z,3.70
2022-09-01T14:00:24.535Z,3.08
2022-09-01T14:02:27.472Z,3.35
2022-09-01T14:04:30.197Z,2.78
2022-09-01T14:06:33.826Z,2.45
2022-09-01T14:08:36.768Z,2.58
2022-09-01T14:10:43.400Z,2.80
2022-09-01T14:12:46.814Z,3.58
2022-09-01T14:17:12.350Z,2.83
2022-09-01T14:19:16.067Z,2.97
2022-09-01T14:21:19.240Z,3.90
2022-09-01T14:23:21.869Z,3.20
2022-09-01T14:25:25.505Z,2.30
2022-09-01T14:27:28.538Z,2.60
2022-09-01T14:29:31.167Z,1.98
2022-09-01T14:31:36.378Z,2.20
2022-09-01T14:33:40.787Z,2.42
2022-09-01T14:35:47.786Z,1.80
2022-09-01T14:37:51.348Z,1.75
2022-09-01T14:39:56.487Z,1.90
2022-09-01T14:41:59.078Z,1.73
2022-09-01T14:44:03.465Z,1.60
2022-09-01T14:46:10.501Z,1.23
2022-09-01T14:48:15.566Z,1.85
2022-09-01T14:50:22.623Z,1.55
2022-09-01T14:52:31.550Z,1.45
2022-09-01T14:54:35.423Z,1.45
2022-09-01T14:56:38.042Z,1.35
2022-09-01T14:58:42.501Z,1.40
2022-09-01T15:00:45.370Z,0.93
2022-09-01T15:02:48.413Z,1.42
2022-09-01T15:04:51.986Z,0.77
2022-09-01T15:06:55.308Z,1.23
2022-09-01T15:08:57.945Z,1.25
2022-09-01T15:11:01.700Z,0.90
2022-09-01T15:13:04.809Z,0.93
2022-09-01T15:15:08.995Z,1.25
2022-09-01T15:17:11.906Z,1.92
2022-09-01T15:19:15.448Z,2.35
2022-09-01T15:21:33.373Z,2.47
2022-09-01T15:23:36.054Z,2.95
2022-09-01T15:25:38.895Z,2.25
2022-09-01T15:27:42.091Z,1.90
2022-09-01T15:29:49.226Z,2.42
2022-09-01T15:31:51.879Z,1.90
2022-09-01T15:33:56.935Z,1.40
2022-09-01T15:35:59.659Z,1.08
2022-09-01T15:38:02.388Z,1.60
2022-09-01T15:40:08.920Z,1.50
2022-09-01T15:42:17.346Z,2.70
2022-09-01T15:44:20.349Z,1.55
2022-09-01T15:46:32.013Z,2.17
2022-09-01T15:48:34.955Z,2.60
2022-09-01T15:50:37.703Z,2.50
2022-09-01T15:53:08.781Z,2.38
2022-09-01T15:55:11.564Z,2.97
2022-09-01T15:57:14.413Z,2.42
2022-09-01T15:59:17.150Z,2.03
2022-09-01T16:01:22.578Z,1.58
2022-09-01T16:03:25.278Z,1.58
2022-09-01T16:05:29.757Z,1.63
2022-09-01T16:07:32.482Z,1.13
2022-09-01T16:09:37.062Z,1.20
2022-09-01T16:11:41.770Z,1.58
2022-09-01T16:13:44.692Z,1.63
2022-09-01T16:15:59.098Z,1.02
2022-09-01T16:18:31.514Z,1.27
2022-09-01T16:20:41.896Z,0.80
2022-09-01T16:22:55.422Z,0.77
2022-09-01T16:25:07.168Z,1.52
2022-09-01T16:27:15.000Z,1.10
2022-09-01T16:29:56.847Z,1.75
2022-09-01T16:34:15.002Z,1.35
2022-09-01T16:36:37.552Z,0.55
2022-09-01T16:39:01.311Z,0.73
2022-09-01T16:41:17.182Z,0.82
2022-09-01T16:43:36.793Z,0.45
2022-09-01T16:46:19.672Z,0.75
2022-09-01T16:48:49.511Z,1.02
2022-09-01T16:51:04.747Z,1.13
2022-09-01T16:53:31.594Z,0.90
2022-09-01T16:55:57.677Z,0.82
2022-09-01T16:58:04.290Z,0.65
2022-09-01T17:00:13.187Z,0.75
2022-09-01T17:02:36.158Z,1.00
2022-09-01T17:04:47.612Z,0.70
2022-09-01T17:07:24.191Z,0.70
2022-09-01T17:09:46.557Z,0.82
2022-09-01T17:11:53.791Z,0.95
2022-09-01T17:13:56.833Z,1.52
2022-09-01T17:16:08.602Z,0.88
2022-09-01T17:18:23.435Z,0.70
2022-09-01T17:20:31.073Z,0.90
2022-09-01T17:22:36.878Z,0.70
2022-09-01T17:24:43.180Z,0.80
2022-09-01T17:26:48.067Z,0.80
2022-09-01T17:29:27.213Z,1.02
2022-09-01T17:31:58.229Z,0.98
2022-09-01T17:34:46.458Z,1.00
2022-09-01T17:37:39.474Z,1.83
2022-09-01T17:39:50.371Z,1.73
2022-09-01T17:42:11.740Z,1.92
2022-09-01T17:44:43.392Z,1.63
2022-09-01T17:47:06.059Z,1.75
2022-09-01T17:49:30.696Z,1.60
2022-09-01T17:52:14.134Z,1.33
2022-09-01T17:54:29.752Z,1.27
2022-09-01T17:57:05.041Z,1.77
2022-09-01T17:59:36.594Z,1.10
2022-09-01T18:01:47.244Z,0.90
2022-09-01T18:04:11.962Z,1.20
2022-09-01T18:06:44.154Z,1.02
2022-09-01T18:08:56.434Z,0.82
2022-09-01T18:11:05.255Z,1.00
2022-09-01T18:13:30.824Z,1.00
2022-09-01T18:16:00.464Z,0.98
2022-09-01T18:18:17.398Z,1.25
2022-09-01T18:20:26.266Z,1.40
2022-09-01T18:22:36.535Z,1.17
2022-09-01T18:24:58.411Z,0.93
2022-09-01T18:27:02.070Z,0.70
2022-09-01T18:29:06.065Z,0.80
2022-09-01T18:31:21.555Z,1.00
2022-09-01T18:33:55.120Z,0.70
2022-09-01T18:36:16.591Z,1.05
2022-09-01T18:38:37.700Z,1.48
2022-09-01T18:41:11.148Z,0.80
2022-09-01T18:43:14.812Z,0.90
2022-09-01T18:45:29.775Z,0.93
2022-09-01T18:47:44.319Z,1.00
2022-09-01T18:49:59.923Z,1.23
2022-09-01T18:52:39.910Z,0.85
2022-09-01T18:55:10.711Z,1.13
2022-09-01T18:57:19.540Z,0.70
2022-09-01T18:59:53.280Z,1.27
2022-09-01T19:02:25.190Z,1.23
2022-09-01T19:04:38.671Z,0.85
2022-09-01T19:06:47.364Z,1.17
2022-09-01T19:09:14.966Z,1.20
2022-09-01T19:11:34.936Z,1.17
2022-09-01T19:13:53.638Z,1.50
2022-09-01T19:16:29.194Z,1.02
2022-09-01T19:18:47.396Z,0.98
2022-09-01T19:20:51.071Z,1.08
2022-09-01T19:23:16.667Z,0.90
2022-09-01T19:25:34.504Z,1.00
2022-09-01T19:27:38.022Z,1.13
2022-09-01T19:29:56.285Z,1.30
2022-09-01T19:32:06.348Z,1.20
2022-09-01T19:34:27.543Z,1.15
2022-09-01T19:36:46.413Z,1.10
2022-09-01T19:38:50.726Z,0.70
2022-09-01T19:41:23.856Z,1.00
2022-09-01T19:43:30.637Z,1.27
2022-09-01T19:45:57.058Z,0.68
2022-09-01T19:48:23.350Z,0.68
2022-09-01T19:50:31.482Z,0.75
2022-09-01T19:52:42.905Z,0.50
2022-09-01T19:55:00.020Z,1.40
2022-09-01T19:57:25.255Z,1.00
2022-09-01T20:00:10.235Z,0.65
2022-09-01T20:03:02.202Z,0.50
2022-09-01T20:05:25.113Z,0.50
2022-09-01T20:07:36.528Z,0.70
2022-09-01T20:09:46.189Z,0.73
2022-09-01T20:12:09.179Z,0.75
2022-09-01T20:14:33.241Z,0.57
2022-09-01T20:16:42.560Z,0.47
2022-09-01T20:18:50.128Z,0.98
2022-09-01T20:21:00.173Z,1.15
2022-09-01T20:23:24.417Z,0.90
2022-09-01T20:25:33.176Z,0.80
2022-09-01T20:27:45.484Z,0.40
2022-09-01T20:29:59.053Z,0.88
2022-09-01T20:32:04.184Z,0.43
2022-09-01T20:34:29.431Z,1.15
2022-09-01T20:36:41.647Z,0.65
2022-09-01T20:39:05.492Z,0.80
2022-09-01T20:41:38.837Z,0.80
2022-09-01T20:43:45.802Z,0.60
2022-09-01T20:45:48.815Z,1.23
2022-09-01T20:47:53.473Z,0.65
2022-09-01T20:49:59.988Z,1.20
2022-09-01T20:52:13.463Z,1.13
2022-09-01T20:54:31.934Z,0.93
2022-09-01T20:57:07.152Z,0.90
2022-09-01T20:59:33.590Z,1.20
2022-09-01T21:02:00.887Z,1.13
2022-09-01T21:04:29.669Z,1.40
2022-09-01T21:07:14.053Z,1.35
2022-09-01T21:09:19.394Z,0.90
2022-09-01T21:11:29.611Z,0.90
2022-09-01T21:14:06.204Z,0.95
2022-09-01T21:16:26.521Z,1.08
2022-09-01T21:18:58.334Z,1.08
2022-09-01T21:21:19.337Z,0.90
2022-09-01T21:23:22.136Z,1.00
2022-09-01T21:25:24.881Z,1.00
2022-09-01T21:27:44.194Z,1.17
2022-09-01T21:29:55.564Z,0.70
2022-09-01T21:31:59.376Z,0.80
2022-09-01T21:34:02.241Z,0.50
2022-09-01T21:36:05.023Z,0.40
2022-09-01T21:38:07.886Z,0.52
2022-09-01T21:40:11.759Z,0.60
2022-09-01T21:42:14.554Z,0.88
2022-09-01T21:44:17.523Z,0.80
2022-09-01T21:46:20.740Z,0.77
2022-09-01T21:48:24.182Z,0.35
2022-09-01T21:50:27.921Z,0.90
2022-09-01T21:52:30.613Z,0.88
2022-09-01T21:54:34.480Z,1.00
2022-09-01T21:56:38.036Z,0.70
2022-09-01T21:58:40.701Z,0.77
2022-09-01T22:00:44.627Z,0.60
2022-09-01T22:02:47.376Z,0.52
2022-09-01T22:04:50.163Z,0.60
2022-09-01T22:06:53.093Z,0.55
2022-09-01T22:08:55.922Z,0.35
2022-09-01T22:10:58.598Z,0.50
2022-09-01T22:13:03.887Z,0.75
2022-09-01T22:15:09.327Z,0.50
2022-09-01T22:17:15.556Z,0.40
2022-09-01T22:19:20.131Z,0.40
2022-09-01T22:21:23.182Z,0.30
2022-09-01T22:23:25.848Z,0.52
2022-09-01T22:25:30.207Z,0.70
2022-09-01T22:27:33.035Z,0.75
2022-09-01T22:29:35.776Z,0.55
2022-09-01T22:31:39.784Z,0.70
2022-09-01T22:33:43.048Z,0.70
2022-09-01T22:35:48.538Z,0.50
2022-09-01T22:37:51.318Z,0.70
2022-09-01T22:39:54.384Z,0.50
2022-09-01T22:41:57.161Z,0.50
2022-09-01T22:44:01.546Z,0.30
2022-09-01T22:46:06.253Z,0.20
2022-09-01T22:48:09.192Z,0.65
2022-09-01T22:50:12.297Z,0.60
2022-09-01T22:52:15.215Z,0.30
2022-09-01T22:54:18.073Z,0.20
2022-09-01T22:56:24.390Z,0.60
2022-09-01T22:58:27.777Z,0.30
2022-09-01T23:00:30.581Z,0.40
2022-09-01T23:02:33.966Z,0.50
2022-09-01T23:04:38.228Z,0.55
2022-09-01T23:06:48.170Z,1.02
2022-09-01T23:08:50.926Z,0.52
2022-09-01T23:10:53.641Z,0.73
2022-09-01T23:12:56.601Z,0.40
2022-09-01T23:14:59.255Z,0.60
2022-09-01T23:17:01.940Z,0.70
2022-09-01T23:19:05.090Z,0.55
2022-09-01T23:21:09.363Z,0.70
2022-09-01T23:23:12.024Z,0.35
2022-09-01T23:25:16.839Z,0.80
2022-09-01T23:27:19.845Z,1.17
2022-09-01T23:29:22.494Z,2.08
2022-09-01T23:31:27.948Z,1.70
2022-09-01T23:33:31.114Z,1.40
2022-09-01T23:35:33.843Z,1.92
2022-09-01T23:37:36.561Z,2.70
2022-09-01T23:39:39.219Z,3.25
2022-09-01T23:41:42.214Z,2.42
2022-09-01T23:43:44.972Z,4.38
2022-09-01T23:45:51.226Z,3.70
2022-09-01T23:47:53.987Z,4.40
2022-09-01T23:49:57.823Z,4.95
2022-09-01T23:52:00.666Z,4.00
2022-09-01T23:54:03.522Z,5.55
2022-09-01T23:56:13.861Z,4.88
2022-09-01T23:58:17.925Z,5.07
